sensor_id;sensor_type;location;lat;lon;timestamp;pressure;altitude;pressure_sealevel;temperature;humidity
17230;BME280;8731;50.364;8.958;2023-01-29T00:03:58;101467.66;;;1.18;70.70
17230;BME280;8731;50.364;8.958;2023-01-29T00:13:43;101465.84;;;1.28;70.03
17230;BME280;8731;50.364;8.958;2023-01-29T00:18:06;101477.25;;;1.26;70.15
17230;BME280;8731;50.364;8.958;2023-01-29T00:22:42;101472.47;;;1.28;71.04
17230;BME280;8731;50.364;8.958;2023-01-29T00:27:05;101467.00;;;1.25;70.29
17230;BME280;8731;50.364;8.958;2023-01-29T00:31:27;101469.97;;;1.22;69.84
17230;BME280;8731;50.364;8.958;2023-01-29T00:35:51;101465.84;;;1.22;70.76
17230;BME280;8731;50.364;8.958;2023-01-29T00:40:13;101451.72;;;1.23;71.12
17230;BME280;8731;50.364;8.958;2023-01-29T00:44:35;101454.91;;;1.28;69.69
17230;BME280;8731;50.364;8.958;2023-01-29T00:49:15;101453.75;;;1.26;69.80
17230;BME280;8731;50.364;8.958;2023-01-29T00:53:39;101445.09;;;1.23;70.61
17230;BME280;8731;50.364;8.958;2023-01-29T00:58:01;101435.75;;;1.22;69.81
17230;BME280;8731;50.364;8.958;2023-01-29T01:02:24;101440.09;;;1.23;70.29
17230;BME280;8731;50.364;8.958;2023-01-29T01:07:04;101434.81;;;1.16;70.25
17230;BME280;8731;50.364;8.958;2023-01-29T01:11:28;101435.75;;;1.22;70.04
17230;BME280;8731;50.364;8.958;2023-01-29T01:15:50;101429.38;;;1.19;70.47
17230;BME280;8731;50.364;8.958;2023-01-29T01:20:12;101434.63;;;1.26;71.17
17230;BME280;8731;50.364;8.958;2023-01-29T01:24:35;101417.75;;;1.25;70.79
17230;BME280;8731;50.364;8.958;2023-01-29T01:28:58;101416.56;;;1.17;70.87
17230;BME280;8731;50.364;8.958;2023-01-29T01:33:21;101405.19;;;1.08;71.80
17230;BME280;8731;50.364;8.958;2023-01-29T01:37:43;101397.44;;;1.01;70.80
17230;BME280;8731;50.364;8.958;2023-01-29T01:42:10;101393.78;;;1.10;71.34
17230;BME280;8731;50.364;8.958;2023-01-29T01:46:36;101400.66;;;1.00;71.03
17230;BME280;8731;50.364;8.958;2023-01-29T01:51:02;101385.13;;;0.91;71.57
17230;BME280;8731;50.364;8.958;2023-01-29T01:55:29;101386.03;;;0.81;71.80
17230;BME280;8731;50.364;8.958;2023-01-29T01:59:57;101386.47;;;0.67;71.99
17230;BME280;8731;50.364;8.958;2023-01-29T02:04:35;101384.44;;;0.81;71.46
17230;BME280;8731;50.364;8.958;2023-01-29T02:09:28;101392.66;;;0.86;71.89
17230;BME280;8731;50.364;8.958;2023-01-29T02:13:56;101395.16;;;0.86;71.75
17230;BME280;8731;50.364;8.958;2023-01-29T02:18:21;101405.63;;;0.89;72.81
17230;BME280;8731;50.364;8.958;2023-01-29T02:28:15;101425.47;;;0.82;72.76
17230;BME280;8731;50.364;8.958;2023-01-29T02:32:50;101432.97;;;0.82;72.49
17230;BME280;8731;50.364;8.958;2023-01-29T02:37:24;101439.81;;;0.77;72.54
17230;BME280;8731;50.364;8.958;2023-01-29T02:42:00;101442.56;;;0.79;72.48
17230;BME280;8731;50.364;8.958;2023-01-29T02:46:34;101435.25;;;0.80;72.30
17230;BME280;8731;50.364;8.958;2023-01-29T02:51:05;101433.66;;;0.75;72.54
17230;BME280;8731;50.364;8.958;2023-01-29T02:55:37;101432.47;;;0.51;72.61
17230;BME280;8731;50.364;8.958;2023-01-29T03:00:06;101416.47;;;0.34;72.69
17230;BME280;8731;50.364;8.958;2023-01-29T03:04:39;101411.72;;;0.46;71.95
17230;BME280;8731;50.364;8.958;2023-01-29T03:09:08;101414.03;;;0.56;72.71
17230;BME280;8731;50.364;8.958;2023-01-29T03:13:40;101415.16;;;0.52;72.62
17230;BME280;8731;50.364;8.958;2023-01-29T03:18:09;101419.22;;;0.46;72.90
17230;BME280;8731;50.364;8.958;2023-01-29T03:22:36;101423.75;;;0.38;73.56
17230;BME280;8731;50.364;8.958;2023-01-29T03:27:02;101426.72;;;0.29;73.12
17230;BME280;8731;50.364;8.958;2023-01-29T03:31:46;101417.31;;;0.23;73.96
17230;BME280;8731;50.364;8.958;2023-01-29T03:36:31;101405.72;;;0.18;73.14
17230;BME280;8731;50.364;8.958;2023-01-29T03:41:03;101396.81;;;0.14;73.99
17230;BME280;8731;50.364;8.958;2023-01-29T03:45:34;101400.47;;;0.11;73.90
17230;BME280;8731;50.364;8.958;2023-01-29T03:50:11;101419.56;;;0.05;73.91
17230;BME280;8731;50.364;8.958;2023-01-29T03:54:55;101422.47;;;-0.04;73.95
17230;BME280;8731;50.364;8.958;2023-01-29T03:59:32;101427.91;;;-0.06;74.16
17230;BME280;8731;50.364;8.958;2023-01-29T04:04:13;101415.59;;;-0.16;74.34
17230;BME280;8731;50.364;8.958;2023-01-29T04:08:44;101425.06;;;-0.30;74.89
17230;BME280;8731;50.364;8.958;2023-01-29T04:13:13;101405.19;;;-0.45;75.72
17230;BME280;8731;50.364;8.958;2023-01-29T04:17:42;101406.44;;;-0.64;76.16
17230;BME280;8731;50.364;8.958;2023-01-29T04:22:18;101400.53;;;-0.65;76.33
17230;BME280;8731;50.364;8.958;2023-01-29T04:26:54;101416.22;;;-0.60;76.35
17230;BME280;8731;50.364;8.958;2023-01-29T04:31:28;101417.34;;;-0.64;75.97
17230;BME280;8731;50.364;8.958;2023-01-29T04:36:11;101434.31;;;-0.72;76.76
17230;BME280;8731;50.364;8.958;2023-01-29T04:40:50;101438.84;;;-0.75;77.23
17230;BME280;8731;50.364;8.958;2023-01-29T04:45:26;101428.16;;;-0.74;77.82
17230;BME280;8731;50.364;8.958;2023-01-29T04:50:01;101420.91;;;-0.73;77.64
17230;BME280;8731;50.364;8.958;2023-01-29T04:54:44;101419.81;;;-0.96;78.47
17230;BME280;8731;50.364;8.958;2023-01-29T04:59:18;101415.78;;;-0.89;78.21
17230;BME280;8731;50.364;8.958;2023-01-29T05:03:49;101417.56;;;-0.94;78.43
17230;BME280;8731;50.364;8.958;2023-01-29T05:08:16;101420.91;;;-0.99;79.25
17230;BME280;8731;50.364;8.958;2023-01-29T05:12:42;101390.22;;;-1.04;80.11
17230;BME280;8731;50.364;8.958;2023-01-29T05:17:13;101378.34;;;-1.10;81.00
17230;BME280;8731;50.364;8.958;2023-01-29T05:21:38;101381.13;;;-1.03;80.71
17230;BME280;8731;50.364;8.958;2023-01-29T05:26:02;101400.22;;;-1.04;79.99
17230;BME280;8731;50.364;8.958;2023-01-29T05:30:26;101402.88;;;-1.13;80.98
17230;BME280;8731;50.364;8.958;2023-01-29T05:34:49;101398.81;;;-1.07;80.42
17230;BME280;8731;50.364;8.958;2023-01-29T05:39:11;101398.38;;;-1.05;80.49
17230;BME280;8731;50.364;8.958;2023-01-29T05:43:33;101403.63;;;-1.03;80.24
17230;BME280;8731;50.364;8.958;2023-01-29T05:47:57;101403.13;;;-1.06;80.38
17230;BME280;8731;50.364;8.958;2023-01-29T05:52:20;101412.47;;;-1.05;80.84
17230;BME280;8731;50.364;8.958;2023-01-29T05:56:42;101423.59;;;-1.03;80.48
17230;BME280;8731;50.364;8.958;2023-01-29T06:01:10;101412.47;;;-1.05;81.50
17230;BME280;8731;50.364;8.958;2023-01-29T06:05:37;101407.91;;;-1.08;81.18
17230;BME280;8731;50.364;8.958;2023-01-29T06:10:00;101401.78;;;-1.04;81.52
17230;BME280;8731;50.364;8.958;2023-01-29T06:14:22;101396.13;;;-1.03;81.37
17230;BME280;8731;50.364;8.958;2023-01-29T06:18:45;101392.47;;;-1.05;81.44
17230;BME280;8731;50.364;8.958;2023-01-29T06:23:08;101371.66;;;-1.21;81.96
17230;BME280;8731;50.364;8.958;2023-01-29T06:27:30;101373.13;;;-1.12;81.43
17230;BME280;8731;50.364;8.958;2023-01-29T06:31:53;101373.13;;;-1.12;81.48
17230;BME280;8731;50.364;8.958;2023-01-29T06:36:15;101381.88;;;-1.19;81.93
17230;BME280;8731;50.364;8.958;2023-01-29T06:40:39;101392.41;;;-1.16;81.54
17230;BME280;8731;50.364;8.958;2023-01-29T06:45:01;101396.22;;;-1.18;81.32
17230;BME280;8731;50.364;8.958;2023-01-29T06:49:23;101402.16;;;-1.18;81.75
17230;BME280;8731;50.364;8.958;2023-01-29T06:53:46;101406.94;;;-1.14;81.47
17230;BME280;8731;50.364;8.958;2023-01-29T06:58:11;101408.06;;;-1.17;81.27
17230;BME280;8731;50.364;8.958;2023-01-29T07:02:33;101431.94;;;-1.14;82.06
17230;BME280;8731;50.364;8.958;2023-01-29T07:06:55;101437.38;;;-1.16;82.36
17230;BME280;8731;50.364;8.958;2023-01-29T07:11:19;101438.19;;;-1.21;83.04
17230;BME280;8731;50.364;8.958;2023-01-29T07:15:42;101424.78;;;-1.22;83.52
17230;BME280;8731;50.364;8.958;2023-01-29T07:20:06;101432.66;;;-1.30;83.73
17230;BME280;8731;50.364;8.958;2023-01-29T07:24:29;101428.88;;;-1.23;84.03
17230;BME280;8731;50.364;8.958;2023-01-29T07:28:52;101420.63;;;-1.33;84.22
17230;BME280;8731;50.364;8.958;2023-01-29T07:33:16;101408.22;;;-1.21;83.97
17230;BME280;8731;50.364;8.958;2023-01-29T07:37:38;101409.22;;;-1.15;83.66
17230;BME280;8731;50.364;8.958;2023-01-29T07:42:00;101398.34;;;-1.10;83.64
17230;BME280;8731;50.364;8.958;2023-01-29T07:46:22;101419.72;;;-1.07;83.75
17230;BME280;8731;50.364;8.958;2023-01-29T07:50:53;101429.22;;;-0.51;83.71
17230;BME280;8731;50.364;8.958;2023-01-29T07:55:16;101433.53;;;-0.88;84.65
17230;BME280;8731;50.364;8.958;2023-01-29T07:59:39;101444.00;;;-0.85;84.01
17230;BME280;8731;50.364;8.958;2023-01-29T08:04:01;101463.31;;;-0.84;83.94
17230;BME280;8731;50.364;8.958;2023-01-29T08:08:25;101455.41;;;-0.76;83.39
17230;BME280;8731;50.364;8.958;2023-01-29T08:12:53;101431.72;;;-0.83;82.70
17230;BME280;8731;50.364;8.958;2023-01-29T08:17:16;101414.97;;;-0.73;82.85
17230;BME280;8731;50.364;8.958;2023-01-29T08:21:38;101410.38;;;-0.81;83.72
17230;BME280;8731;50.364;8.958;2023-01-29T08:26:02;101425.41;;;-0.76;83.10
17230;BME280;8731;50.364;8.958;2023-01-29T08:30:25;101426.56;;;-0.74;83.70
17230;BME280;8731;50.364;8.958;2023-01-29T08:34:49;101411.91;;;-0.61;83.60
17230;BME280;8731;50.364;8.958;2023-01-29T08:39:12;101422.63;;;-0.56;83.05
17230;BME280;8731;50.364;8.958;2023-01-29T08:43:35;101439.31;;;-0.46;82.62
17230;BME280;8731;50.364;8.958;2023-01-29T08:47:58;101439.34;;;-0.35;82.28
17230;BME280;8731;50.364;8.958;2023-01-29T08:52:20;101443.50;;;-0.24;82.45
17230;BME280;8731;50.364;8.958;2023-01-29T08:56:42;101458.09;;;-0.21;82.26
17230;BME280;8731;50.364;8.958;2023-01-29T09:01:07;101464.50;;;-0.12;81.56
17230;BME280;8731;50.364;8.958;2023-01-29T09:05:30;101463.63;;;-0.07;81.83
17230;BME280;8731;50.364;8.958;2023-01-29T09:09:52;101480.31;;;0.04;81.63
17230;BME280;8731;50.364;8.958;2023-01-29T09:14:15;101480.31;;;0.04;81.20
17230;BME280;8731;50.364;8.958;2023-01-29T09:18:39;101481.69;;;0.02;81.75
17230;BME280;8731;50.364;8.958;2023-01-29T09:23:03;101481.03;;;0.14;81.92
17230;BME280;8731;50.364;8.958;2023-01-29T09:27:26;101479.44;;;0.09;82.50
17230;BME280;8731;50.364;8.958;2023-01-29T09:31:48;101473.31;;;0.18;82.10
17230;BME280;8731;50.364;8.958;2023-01-29T09:36:11;101476.25;;;0.15;81.88
17230;BME280;8731;50.364;8.958;2023-01-29T09:40:39;101486.03;;;0.14;81.04
17230;BME280;8731;50.364;8.958;2023-01-29T09:45:12;101478.38;;;0.29;81.59
17230;BME280;8731;50.364;8.958;2023-01-29T09:49:39;101473.19;;;0.39;80.67
17230;BME280;8731;50.364;8.958;2023-01-29T09:54:13;101446.28;;;0.26;80.82
17230;BME280;8731;50.364;8.958;2023-01-29T09:58:41;101444.78;;;0.55;80.49
17230;BME280;8731;50.364;8.958;2023-01-29T10:03:18;101437.88;;;0.37;80.34
17230;BME280;8731;50.364;8.958;2023-01-29T10:08:11;101433.41;;;0.63;79.70
17230;BME280;8731;50.364;8.958;2023-01-29T10:12:59;101422.00;;;0.48;79.82
17230;BME280;8731;50.364;8.958;2023-01-29T10:17:47;101399.69;;;0.60;78.74
17230;BME280;8731;50.364;8.958;2023-01-29T10:22:32;101413.16;;;0.89;79.26
17230;BME280;8731;50.364;8.958;2023-01-29T10:27:11;101397.69;;;0.97;79.00
17230;BME280;8731;50.364;8.958;2023-01-29T10:31:38;101397.91;;;1.04;77.48
17230;BME280;8731;50.364;8.958;2023-01-29T10:36:04;101378.72;;;1.16;75.64
17230;BME280;8731;50.364;8.958;2023-01-29T10:40:36;101377.81;;;1.32;75.03
17230;BME280;8731;50.364;8.958;2023-01-29T10:45:14;101369.56;;;1.50;74.08
17230;BME280;8731;50.364;8.958;2023-01-29T10:50:13;101365.00;;;1.53;74.23
17230;BME280;8731;50.364;8.958;2023-01-29T10:54:48;101353.16;;;1.52;73.59
17230;BME280;8731;50.364;8.958;2023-01-29T10:59:36;101350.59;;;1.69;71.78
17230;BME280;8731;50.364;8.958;2023-01-29T11:04:12;101341.97;;;2.13;72.07
17230;BME280;8731;50.364;8.958;2023-01-29T11:08:42;101338.19;;;2.28;71.25
17230;BME280;8731;50.364;8.958;2023-01-29T11:13:12;101326.34;;;2.27;70.81
17230;BME280;8731;50.364;8.958;2023-01-29T11:17:36;101318.88;;;2.10;71.90
17230;BME280;8731;50.364;8.958;2023-01-29T11:21:59;101310.47;;;2.44;69.91
17230;BME280;8731;50.364;8.958;2023-01-29T11:26:24;101306.47;;;2.58;69.48
17230;BME280;8731;50.364;8.958;2023-01-29T11:30:55;101296.91;;;2.79;68.92
17230;BME280;8731;50.364;8.958;2023-01-29T11:35:24;101279.59;;;2.75;69.09
17230;BME280;8731;50.364;8.958;2023-01-29T11:39:49;101286.94;;;2.44;71.36
17230;BME280;8731;50.364;8.958;2023-01-29T11:44:20;101285.22;;;2.56;71.96
17230;BME280;8731;50.364;8.958;2023-01-29T11:48:51;101262.00;;;2.75;67.78
17230;BME280;8731;50.364;8.958;2023-01-29T11:53:23;101257.38;;;2.78;69.62
17230;BME280;8731;50.364;8.958;2023-01-29T11:58:00;101248.88;;;2.83;67.39
17230;BME280;8731;50.364;8.958;2023-01-29T12:02:36;101242.72;;;2.81;67.70
17230;BME280;8731;50.364;8.958;2023-01-29T12:07:10;101234.94;;;2.85;68.36
17230;BME280;8731;50.364;8.958;2023-01-29T12:11:35;101228.31;;;2.62;68.27
17230;BME280;8731;50.364;8.958;2023-01-29T12:16:16;101213.78;;;2.72;67.71
17230;BME280;8731;50.364;8.958;2023-01-29T12:20:53;101228.00;;;2.42;69.15
17230;BME280;8731;50.364;8.958;2023-01-29T12:25:21;101223.75;;;2.30;69.58
17230;BME280;8731;50.364;8.958;2023-01-29T12:29:50;101213.00;;;2.60;69.30
17230;BME280;8731;50.364;8.958;2023-01-29T12:34:21;101195.78;;;2.69;69.53
17230;BME280;8731;50.364;8.958;2023-01-29T12:38:51;101195.88;;;2.58;69.95
17230;BME280;8731;50.364;8.958;2023-01-29T12:43:15;101173.47;;;2.59;69.08
17230;BME280;8731;50.364;8.958;2023-01-29T12:47:41;101158.69;;;2.73;69.02
17230;BME280;8731;50.364;8.958;2023-01-29T12:52:10;101156.19;;;2.50;68.78
17230;BME280;8731;50.364;8.958;2023-01-29T12:56:39;101135.22;;;2.67;70.03
17230;BME280;8731;50.364;8.958;2023-01-29T13:01:12;101136.84;;;2.19;70.08
17230;BME280;8731;50.364;8.958;2023-01-29T13:05:40;101141.66;;;2.65;68.35
17230;BME280;8731;50.364;8.958;2023-01-29T13:10:12;101135.25;;;3.04;67.82
17230;BME280;8731;50.364;8.958;2023-01-29T13:14:43;101141.38;;;3.06;68.14
17230;BME280;8731;50.364;8.958;2023-01-29T13:19:16;101139.38;;;3.22;68.66
17230;BME280;8731;50.364;8.958;2023-01-29T13:23:47;101125.00;;;2.84;69.47
17230;BME280;8731;50.364;8.958;2023-01-29T13:28:16;101133.16;;;3.25;68.03
17230;BME280;8731;50.364;8.958;2023-01-29T13:32:50;101129.25;;;3.09;66.55
17230;BME280;8731;50.364;8.958;2023-01-29T13:37:20;101132.38;;;2.95;66.80
17230;BME280;8731;50.364;8.958;2023-01-29T13:41:48;101130.63;;;2.70;66.77
17230;BME280;8731;50.364;8.958;2023-01-29T13:46:15;101124.56;;;2.99;66.62
17230;BME280;8731;50.364;8.958;2023-01-29T13:50:42;101123.03;;;3.13;66.86
17230;BME280;8731;50.364;8.958;2023-01-29T13:55:07;101119.53;;;2.99;66.67
17230;BME280;8731;50.364;8.958;2023-01-29T13:59:51;101108.72;;;2.88;66.81
17230;BME280;8731;50.364;8.958;2023-01-29T14:04:21;101109.63;;;2.88;67.76
17230;BME280;8731;50.364;8.958;2023-01-29T14:08:47;101094.38;;;2.81;67.52
17230;BME280;8731;50.364;8.958;2023-01-29T14:13:26;101102.88;;;2.58;68.14
17230;BME280;8731;50.364;8.958;2023-01-29T14:18:05;101086.41;;;2.78;67.35
17230;BME280;8731;50.364;8.958;2023-01-29T14:22:37;101077.91;;;2.65;67.44
17230;BME280;8731;50.364;8.958;2023-01-29T14:27:02;101070.56;;;2.66;67.97
17230;BME280;8731;50.364;8.958;2023-01-29T14:31:38;101081.13;;;2.64;68.42
17230;BME280;8731;50.364;8.958;2023-01-29T14:36:03;101075.44;;;2.41;69.09
17230;BME280;8731;50.364;8.958;2023-01-29T14:40:29;101068.03;;;2.48;67.73
17230;BME280;8731;50.364;8.958;2023-01-29T14:45:00;101078.56;;;2.45;68.36
17230;BME280;8731;50.364;8.958;2023-01-29T14:49:50;101082.38;;;2.31;68.47
17230;BME280;8731;50.364;8.958;2023-01-29T14:54:20;101072.81;;;2.28;68.77
17230;BME280;8731;50.364;8.958;2023-01-29T14:58:49;101072.88;;;2.23;68.57
17230;BME280;8731;50.364;8.958;2023-01-29T15:03:21;101068.50;;;2.03;68.37
17230;BME280;8731;50.364;8.958;2023-01-29T15:07:56;101067.00;;;1.93;68.63
17230;BME280;8731;50.364;8.958;2023-01-29T15:12:27;101065.78;;;2.02;69.04
17230;BME280;8731;50.364;8.958;2023-01-29T15:17:05;101046.72;;;1.85;69.98
17230;BME280;8731;50.364;8.958;2023-01-29T15:22:06;101033.41;;;1.98;69.77
17230;BME280;8731;50.364;8.958;2023-01-29T15:26:30;101029.59;;;1.89;70.42
17230;BME280;8731;50.364;8.958;2023-01-29T15:30:55;101022.38;;;1.79;70.51
17230;BME280;8731;50.364;8.958;2023-01-29T15:35:27;101026.34;;;1.71;71.02
17230;BME280;8731;50.364;8.958;2023-01-29T15:39:52;101013.16;;;1.67;70.64
17230;BME280;8731;50.364;8.958;2023-01-29T15:44:18;101005.97;;;1.51;71.93
17230;BME280;8731;50.364;8.958;2023-01-29T15:48:43;101004.03;;;1.67;71.25
17230;BME280;8731;50.364;8.958;2023-01-29T15:53:12;101001.38;;;1.54;71.29
17230;BME280;8731;50.364;8.958;2023-01-29T15:57:40;101002.41;;;1.44;72.41
17230;BME280;8731;50.364;8.958;2023-01-29T16:02:22;101025.88;;;1.74;74.31
17230;BME280;8731;50.364;8.958;2023-01-29T16:06:53;101027.44;;;1.49;73.28
17230;BME280;8731;50.364;8.958;2023-01-29T16:11:18;101027.41;;;1.79;75.33
17230;BME280;8731;50.364;8.958;2023-01-29T16:15:53;101040.09;;;1.62;73.92
17230;BME280;8731;50.364;8.958;2023-01-29T16:20:30;101048.06;;;1.36;74.00
17230;BME280;8731;50.364;8.958;2023-01-29T16:24:57;101053.06;;;1.36;72.56
17230;BME280;8731;50.364;8.958;2023-01-29T16:29:28;101044.41;;;1.34;73.53
17230;BME280;8731;50.364;8.958;2023-01-29T16:33:55;101056.31;;;1.29;72.40
17230;BME280;8731;50.364;8.958;2023-01-29T16:38:26;101062.06;;;1.22;73.13
17230;BME280;8731;50.364;8.958;2023-01-29T16:43:05;101054.09;;;1.19;73.20
17230;BME280;8731;50.364;8.958;2023-01-29T16:48:24;101056.50;;;1.01;73.44
17230;BME280;8731;50.364;8.958;2023-01-29T16:52:56;101065.88;;;0.91;73.24
17230;BME280;8731;50.364;8.958;2023-01-29T16:57:24;101062.34;;;0.72;74.55
17230;BME280;8731;50.364;8.958;2023-01-29T17:01:50;101064.16;;;0.73;74.80
17230;BME280;8731;50.364;8.958;2023-01-29T17:06:20;101068.03;;;0.71;74.07
17230;BME280;8731;50.364;8.958;2023-01-29T17:10:47;101065.06;;;0.68;75.09
17230;BME280;8731;50.364;8.958;2023-01-29T17:15:32;101072.56;;;0.68;74.43
17230;BME280;8731;50.364;8.958;2023-01-29T17:19:57;101073.25;;;0.67;75.43
17230;BME280;8731;50.364;8.958;2023-01-29T17:24:22;101077.38;;;0.67;74.95
17230;BME280;8731;50.364;8.958;2023-01-29T17:28:48;101073.03;;;0.66;75.38
17230;BME280;8731;50.364;8.958;2023-01-29T17:33:12;101074.84;;;0.67;75.94
17230;BME280;8731;50.364;8.958;2023-01-29T17:37:35;101080.31;;;0.70;76.30
17230;BME280;8731;50.364;8.958;2023-01-29T17:41:58;101078.72;;;0.70;75.74
17230;BME280;8731;50.364;8.958;2023-01-29T17:46:22;101078.06;;;0.71;75.83
17230;BME280;8731;50.364;8.958;2023-01-29T17:50:46;101069.38;;;0.75;75.81
17230;BME280;8731;50.364;8.958;2023-01-29T17:55:12;101062.06;;;0.71;75.85
17230;BME280;8731;50.364;8.958;2023-01-29T17:59:36;101062.06;;;0.71;75.90
17230;BME280;8731;50.364;8.958;2023-01-29T18:03:59;101048.91;;;0.72;76.46
17230;BME280;8731;50.364;8.958;2023-01-29T18:08:25;101040.69;;;0.67;76.58
17230;BME280;8731;50.364;8.958;2023-01-29T18:12:51;101042.06;;;0.65;76.29
17230;BME280;8731;50.364;8.958;2023-01-29T18:17:14;101034.41;;;0.52;76.87
17230;BME280;8731;50.364;8.958;2023-01-29T18:21:42;101028.69;;;0.53;76.49
17230;BME280;8731;50.364;8.958;2023-01-29T18:26:05;101030.97;;;0.46;76.74
17230;BME280;8731;50.364;8.958;2023-01-29T18:30:28;101018.91;;;0.44;77.03
17230;BME280;8731;50.364;8.958;2023-01-29T18:34:50;101016.25;;;0.31;77.51
17230;BME280;8731;50.364;8.958;2023-01-29T18:39:13;101013.31;;;0.28;76.82
17230;BME280;8731;50.364;8.958;2023-01-29T18:43:36;101003.06;;;0.21;77.74
17230;BME280;8731;50.364;8.958;2023-01-29T18:47:59;101005.13;;;0.18;77.46
17230;BME280;8731;50.364;8.958;2023-01-29T18:52:21;100996.72;;;0.12;78.00
17230;BME280;8731;50.364;8.958;2023-01-29T18:56:46;100999.50;;;0.02;78.02
17230;BME280;8731;50.364;8.958;2023-01-29T19:01:09;100990.19;;;0.01;78.07
17230;BME280;8731;50.364;8.958;2023-01-29T19:05:32;100981.50;;;-0.01;78.24
17230;BME280;8731;50.364;8.958;2023-01-29T19:09:54;100973.56;;;-0.04;78.06
17230;BME280;8731;50.364;8.958;2023-01-29T19:14:18;100973.56;;;-0.04;78.25
17230;BME280;8731;50.364;8.958;2023-01-29T19:18:40;100965.81;;;-0.06;79.03
17230;BME280;8731;50.364;8.958;2023-01-29T19:23:03;100971.28;;;-0.08;78.85
17230;BME280;8731;50.364;8.958;2023-01-29T19:27:25;100972.44;;;-0.12;79.40
17230;BME280;8731;50.364;8.958;2023-01-29T19:31:50;100976.56;;;-0.18;79.01
17230;BME280;8731;50.364;8.958;2023-01-29T19:36:13;100979.97;;;-0.17;79.44
17230;BME280;8731;50.364;8.958;2023-01-29T19:40:35;100984.75;;;-0.19;79.71
17230;BME280;8731;50.364;8.958;2023-01-29T19:44:58;100985.44;;;-0.20;79.39
17230;BME280;8731;50.364;8.958;2023-01-29T19:49:22;100981.81;;;-0.22;79.43
17230;BME280;8731;50.364;8.958;2023-01-29T19:53:44;100980.91;;;-0.22;79.38
17230;BME280;8731;50.364;8.958;2023-01-29T19:58:06;100986.31;;;-0.25;79.67
17230;BME280;8731;50.364;8.958;2023-01-29T20:02:29;100978.59;;;-0.26;79.73
17230;BME280;8731;50.364;8.958;2023-01-29T20:06:53;100975.41;;;-0.25;80.26
17230;BME280;8731;50.364;8.958;2023-01-29T20:11:18;100965.41;;;-0.25;80.47
17230;BME280;8731;50.364;8.958;2023-01-29T20:15:44;100967.72;;;-0.33;81.19
17230;BME280;8731;50.364;8.958;2023-01-29T20:20:09;100961.34;;;-0.31;81.68
17230;BME280;8731;50.364;8.958;2023-01-29T20:24:33;100959.72;;;-0.30;81.58
17230;BME280;8731;50.364;8.958;2023-01-29T20:28:58;100961.78;;;-0.33;82.26
17230;BME280;8731;50.364;8.958;2023-01-29T20:33:20;100959.72;;;-0.30;82.48
17230;BME280;8731;50.364;8.958;2023-01-29T20:37:43;100944.47;;;-0.26;82.54
17230;BME280;8731;50.364;8.958;2023-01-29T20:42:06;100937.66;;;-0.27;82.79
17230;BME280;8731;50.364;8.958;2023-01-29T20:46:28;100923.59;;;-0.32;83.26
17230;BME280;8731;50.364;8.958;2023-01-29T20:50:51;100939.97;;;-0.23;83.25
17230;BME280;8731;50.364;8.958;2023-01-29T20:55:14;100922.91;;;-0.31;83.17
17230;BME280;8731;50.364;8.958;2023-01-29T20:59:38;100902.41;;;-0.28;82.66
17230;BME280;8731;50.364;8.958;2023-01-29T21:04:00;100906.53;;;-0.23;82.73
17230;BME280;8731;50.364;8.958;2023-01-29T21:08:22;100896.25;;;-0.25;83.07
17230;BME280;8731;50.364;8.958;2023-01-29T21:12:44;100887.84;;;-0.25;82.98
17230;BME280;8731;50.364;8.958;2023-01-29T21:17:08;100881.28;;;-0.31;83.33
17230;BME280;8731;50.364;8.958;2023-01-29T21:21:30;100873.09;;;-0.29;84.26
17230;BME280;8731;50.364;8.958;2023-01-29T21:25:59;100865.34;;;-0.25;83.87
17230;BME280;8731;50.364;8.958;2023-01-29T21:30:22;100852.59;;;-0.27;84.40
17230;BME280;8731;50.364;8.958;2023-01-29T21:34:46;100832.59;;;-0.21;84.13
17230;BME280;8731;50.364;8.958;2023-01-29T21:39:08;100818.50;;;-0.26;84.15
17230;BME280;8731;50.364;8.958;2023-01-29T21:43:36;100814.63;;;-0.19;84.43
17230;BME280;8731;50.364;8.958;2023-01-29T21:47:59;100796.41;;;-0.18;85.15
17230;BME280;8731;50.364;8.958;2023-01-29T21:52:22;100797.97;;;-0.13;84.11
17230;BME280;8731;50.364;8.958;2023-01-29T21:56:44;100790.66;;;-0.06;84.25
17230;BME280;8731;50.364;8.958;2023-01-29T22:01:07;100805.22;;;-0.09;84.45
17230;BME280;8731;50.364;8.958;2023-01-29T22:05:29;100797.00;;;-0.02;84.66
17230;BME280;8731;50.364;8.958;2023-01-29T22:09:52;100788.41;;;-0.10;83.45
17230;BME280;8731;50.364;8.958;2023-01-29T22:14:15;100781.97;;;-0.02;83.86
17230;BME280;8731;50.364;8.958;2023-01-29T22:18:38;100778.19;;;-0.11;84.42
17230;BME280;8731;50.364;8.958;2023-01-29T22:23:01;100776.28;;;-0.01;84.34
17230;BME280;8731;50.364;8.958;2023-01-29T22:27:24;100768.75;;;0.05;84.09
17230;BME280;8731;50.364;8.958;2023-01-29T22:31:46;100763.13;;;0.00;83.90
17230;BME280;8731;50.364;8.958;2023-01-29T22:36:09;100762.88;;;-0.02;84.08
17230;BME280;8731;50.364;8.958;2023-01-29T22:40:31;100758.75;;;0.05;84.36
17230;BME280;8731;50.364;8.958;2023-01-29T22:44:54;100743.69;;;0.10;84.83
17230;BME280;8731;50.364;8.958;2023-01-29T22:49:17;100749.88;;;0.07;84.83
17230;BME280;8731;50.364;8.958;2023-01-29T22:53:41;100742.56;;;0.08;84.49
17230;BME280;8731;50.364;8.958;2023-01-29T22:58:08;100725.25;;;0.10;85.07
17230;BME280;8731;50.364;8.958;2023-01-29T23:02:32;100720.16;;;0.21;85.19
17230;BME280;8731;50.364;8.958;2023-01-29T23:06:54;100725.16;;;0.26;85.29
17230;BME280;8731;50.364;8.958;2023-01-29T23:11:19;100709.56;;;0.11;84.98
17230;BME280;8731;50.364;8.958;2023-01-29T23:15:42;100707.63;;;0.21;84.95
17230;BME280;8731;50.364;8.958;2023-01-29T23:20:08;100713.97;;;0.30;85.64
17230;BME280;8731;50.364;8.958;2023-01-29T23:24:31;100726.00;;;0.33;85.52
17230;BME280;8731;50.364;8.958;2023-01-29T23:28:53;100718.91;;;0.36;85.42
17230;BME280;8731;50.364;8.958;2023-01-29T23:33:15;100710.72;;;0.37;85.50
17230;BME280;8731;50.364;8.958;2023-01-29T23:37:39;100724.56;;;0.40;85.54
17230;BME280;8731;50.364;8.958;2023-01-29T23:42:01;100701.28;;;0.47;85.29
17230;BME280;8731;50.364;8.958;2023-01-29T23:46:24;100692.00;;;0.40;85.75
17230;BME280;8731;50.364;8.958;2023-01-29T23:50:46;100672.78;;;0.52;86.75
17230;BME280;8731;50.364;8.958;2023-01-29T23:55:10;100696.66;;;0.55;86.04
17230;BME280;8731;50.364;8.958;2023-01-29T23:59:33;100687.34;;;0.54;86.33
